sensor_id;sensor_type;location;lat;lon;timestamp;temperature;humidity
19781;DHT22;10050;55.492;13.506;2022-10-20T00:01:57;3.70;99.90
19781;DHT22;10050;55.492;13.506;2022-10-20T00:04:23;3.70;99.90
19781;DHT22;10050;55.492;13.506;2022-10-20T00:06:48;3.70;99.90
19781;DHT22;10050;55.492;13.506;2022-10-20T00:09:14;3.70;99.90
19781;DHT22;10050;55.492;13.506;2022-10-20T00:11:39;3.60;99.90
19781;DHT22;10050;55.492;13.506;2022-10-20T00:14:05;3.60;99.90
19781;DHT22;10050;55.492;13.506;2022-10-20T00:16:35;3.60;99.90
19781;DHT22;10050;55.492;13.506;2022-10-20T00:19:01;3.50;99.90
19781;DHT22;10050;55.492;13.506;2022-10-20T00:21:28;3.50;99.90
19781;DHT22;10050;55.492;13.506;2022-10-20T00:23:54;3.50;99.90
19781;DHT22;10050;55.492;13.506;2022-10-20T00:26:25;3.50;99.90
19781;DHT22;10050;55.492;13.506;2022-10-20T00:28:51;3.50;99.90
19781;DHT22;10050;55.492;13.506;2022-10-20T00:31:19;3.50;99.90
19781;DHT22;10050;55.492;13.506;2022-10-20T00:33:45;3.50;99.90
19781;DHT22;10050;55.492;13.506;2022-10-20T00:36:13;3.40;99.90
19781;DHT22;10050;55.492;13.506;2022-10-20T00:38:39;3.40;99.90
19781;DHT22;10050;55.492;13.506;2022-10-20T00:41:05;3.40;99.90
19781;DHT22;10050;55.492;13.506;2022-10-20T00:43:43;3.30;99.90
19781;DHT22;10050;55.492;13.506;2022-10-20T00:46:11;3.40;99.90
19781;DHT22;10050;55.492;13.506;2022-10-20T00:48:38;3.30;99.90
19781;DHT22;10050;55.492;13.506;2022-10-20T00:51:04;3.30;99.90
19781;DHT22;10050;55.492;13.506;2022-10-20T00:53:30;3.30;99.90
19781;DHT22;10050;55.492;13.506;2022-10-20T00:55:57;3.30;99.90
19781;DHT22;10050;55.492;13.506;2022-10-20T00:58:24;3.30;99.90
19781;DHT22;10050;55.492;13.506;2022-10-20T01:00:53;3.30;99.90
19781;DHT22;10050;55.492;13.506;2022-10-20T01:03:29;3.30;99.90
19781;DHT22;10050;55.492;13.506;2022-10-20T01:05:56;3.30;99.90
19781;DHT22;10050;55.492;13.506;2022-10-20T01:08:22;3.30;99.90
19781;DHT22;10050;55.492;13.506;2022-10-20T01:27:48;3.20;99.90
19781;DHT22;10050;55.492;13.506;2022-10-20T01:30:21;3.20;99.90
19781;DHT22;10050;55.492;13.506;2022-10-20T01:35:37;3.20;99.90
19781;DHT22;10050;55.492;13.506;2022-10-20T01:38:21;3.10;99.90
19781;DHT22;10050;55.492;13.506;2022-10-20T01:40:51;3.10;99.90
19781;DHT22;10050;55.492;13.506;2022-10-20T01:43:20;3.10;99.90
19781;DHT22;10050;55.492;13.506;2022-10-20T01:45:48;3.10;99.90
19781;DHT22;10050;55.492;13.506;2022-10-20T01:48:19;3.10;99.90
19781;DHT22;10050;55.492;13.506;2022-10-20T01:50:46;3.10;99.90
19781;DHT22;10050;55.492;13.506;2022-10-20T01:53:12;3.10;99.90
19781;DHT22;10050;55.492;13.506;2022-10-20T01:55:39;3.00;99.90
19781;DHT22;10050;55.492;13.506;2022-10-20T02:03:57;3.00;99.90
19781;DHT22;10050;55.492;13.506;2022-10-20T02:09:35;3.00;99.90
19781;DHT22;10050;55.492;13.506;2022-10-20T02:12:07;2.90;99.90
19781;DHT22;10050;55.492;13.506;2022-10-20T02:14:35;2.90;99.90
19781;DHT22;10050;55.492;13.506;2022-10-20T02:17:06;2.90;99.90
19781;DHT22;10050;55.492;13.506;2022-10-20T02:19:36;2.90;99.90
19781;DHT22;10050;55.492;13.506;2022-10-20T02:22:04;2.90;99.90
19781;DHT22;10050;55.492;13.506;2022-10-20T02:24:36;2.90;99.90
19781;DHT22;10050;55.492;13.506;2022-10-20T02:27:08;2.90;99.90
19781;DHT22;10050;55.492;13.506;2022-10-20T02:29:38;2.90;99.90
19781;DHT22;10050;55.492;13.506;2022-10-20T02:32:06;2.90;99.90
19781;DHT22;10050;55.492;13.506;2022-10-20T02:34:32;2.90;99.90
19781;DHT22;10050;55.492;13.506;2022-10-20T02:36:58;2.90;99.90
19781;DHT22;10050;55.492;13.506;2022-10-20T02:39:24;2.80;99.90
19781;DHT22;10050;55.492;13.506;2022-10-20T02:41:50;2.80;99.90
19781;DHT22;10050;55.492;13.506;2022-10-20T02:44:16;2.80;99.90
19781;DHT22;10050;55.492;13.506;2022-10-20T02:46:42;2.80;99.90
19781;DHT22;10050;55.492;13.506;2022-10-20T02:49:08;2.80;99.90
19781;DHT22;10050;55.492;13.506;2022-10-20T02:51:33;2.80;99.90
19781;DHT22;10050;55.492;13.506;2022-10-20T02:53:59;2.80;99.90
19781;DHT22;10050;55.492;13.506;2022-10-20T02:56:25;2.80;99.90
19781;DHT22;10050;55.492;13.506;2022-10-20T02:58:50;2.70;99.90
19781;DHT22;10050;55.492;13.506;2022-10-20T03:01:16;2.70;99.90
19781;DHT22;10050;55.492;13.506;2022-10-20T03:03:42;2.80;99.90
19781;DHT22;10050;55.492;13.506;2022-10-20T03:06:13;2.80;99.90
19781;DHT22;10050;55.492;13.506;2022-10-20T03:08:39;2.70;99.90
19781;DHT22;10050;55.492;13.506;2022-10-20T03:11:05;2.80;99.90
19781;DHT22;10050;55.492;13.506;2022-10-20T03:13:31;2.80;99.90
19781;DHT22;10050;55.492;13.506;2022-10-20T03:15:56;2.70;99.90
19781;DHT22;10050;55.492;13.506;2022-10-20T03:18:22;2.70;99.90
19781;DHT22;10050;55.492;13.506;2022-10-20T03:20:52;2.70;99.90
19781;DHT22;10050;55.492;13.506;2022-10-20T03:23:18;2.60;99.90
19781;DHT22;10050;55.492;13.506;2022-10-20T03:25:44;2.60;99.90
19781;DHT22;10050;55.492;13.506;2022-10-20T03:28:09;2.60;99.90
19781;DHT22;10050;55.492;13.506;2022-10-20T03:30:35;2.60;99.90
19781;DHT22;10050;55.492;13.506;2022-10-20T03:33:01;2.60;99.90
19781;DHT22;10050;55.492;13.506;2022-10-20T03:35:26;2.60;99.90
19781;DHT22;10050;55.492;13.506;2022-10-20T03:37:52;2.60;99.90
19781;DHT22;10050;55.492;13.506;2022-10-20T03:40:17;2.60;99.90
19781;DHT22;10050;55.492;13.506;2022-10-20T03:42:43;2.60;99.90
19781;DHT22;10050;55.492;13.506;2022-10-20T03:45:09;2.50;99.90
19781;DHT22;10050;55.492;13.506;2022-10-20T03:47:35;2.60;99.90
19781;DHT22;10050;55.492;13.506;2022-10-20T03:50:01;2.60;99.90
19781;DHT22;10050;55.492;13.506;2022-10-20T03:52:26;2.60;99.90
19781;DHT22;10050;55.492;13.506;2022-10-20T03:54:52;2.60;99.90
19781;DHT22;10050;55.492;13.506;2022-10-20T03:57:18;2.60;99.90
19781;DHT22;10050;55.492;13.506;2022-10-20T03:59:45;2.60;99.90
19781;DHT22;10050;55.492;13.506;2022-10-20T04:04:47;2.50;99.90
19781;DHT22;10050;55.492;13.506;2022-10-20T04:07:12;2.50;99.90
19781;DHT22;10050;55.492;13.506;2022-10-20T04:09:38;2.50;99.90
19781;DHT22;10050;55.492;13.506;2022-10-20T04:12:04;2.50;99.90
19781;DHT22;10050;55.492;13.506;2022-10-20T04:14:29;2.50;99.90
19781;DHT22;10050;55.492;13.506;2022-10-20T04:16:55;2.50;99.90
19781;DHT22;10050;55.492;13.506;2022-10-20T04:19:20;2.50;99.90
19781;DHT22;10050;55.492;13.506;2022-10-20T04:21:46;2.50;99.90
19781;DHT22;10050;55.492;13.506;2022-10-20T04:24:11;2.50;99.90
19781;DHT22;10050;55.492;13.506;2022-10-20T04:26:37;2.40;99.90
19781;DHT22;10050;55.492;13.506;2022-10-20T04:29:03;2.40;99.90
19781;DHT22;10050;55.492;13.506;2022-10-20T04:31:28;2.40;99.90
19781;DHT22;10050;55.492;13.506;2022-10-20T04:33:54;2.40;99.90
19781;DHT22;10050;55.492;13.506;2022-10-20T04:36:19;2.40;99.90
19781;DHT22;10050;55.492;13.506;2022-10-20T04:38:45;2.40;99.90
19781;DHT22;10050;55.492;13.506;2022-10-20T04:41:10;2.40;99.90
19781;DHT22;10050;55.492;13.506;2022-10-20T04:43:36;2.40;99.90
19781;DHT22;10050;55.492;13.506;2022-10-20T04:46:05;2.30;99.90
19781;DHT22;10050;55.492;13.506;2022-10-20T04:48:31;2.30;99.90
19781;DHT22;10050;55.492;13.506;2022-10-20T04:51:15;2.30;99.90
19781;DHT22;10050;55.492;13.506;2022-10-20T04:53:41;2.30;99.90
19781;DHT22;10050;55.492;13.506;2022-10-20T04:56:09;2.30;99.90
19781;DHT22;10050;55.492;13.506;2022-10-20T04:58:36;2.30;99.90
19781;DHT22;10050;55.492;13.506;2022-10-20T05:01:07;2.30;99.90
19781;DHT22;10050;55.492;13.506;2022-10-20T05:03:35;2.30;99.90
19781;DHT22;10050;55.492;13.506;2022-10-20T05:06:15;2.30;99.90
19781;DHT22;10050;55.492;13.506;2022-10-20T05:08:43;2.30;99.90
19781;DHT22;10050;55.492;13.506;2022-10-20T05:11:09;2.30;99.90
19781;DHT22;10050;55.492;13.506;2022-10-20T05:13:35;2.30;99.90
19781;DHT22;10050;55.492;13.506;2022-10-20T05:16:02;2.30;99.90
19781;DHT22;10050;55.492;13.506;2022-10-20T05:18:28;2.30;99.90
19781;DHT22;10050;55.492;13.506;2022-10-20T05:20:54;2.30;99.90
19781;DHT22;10050;55.492;13.506;2022-10-20T05:23:19;2.30;99.90
19781;DHT22;10050;55.492;13.506;2022-10-20T05:25:45;2.30;99.90
19781;DHT22;10050;55.492;13.506;2022-10-20T05:28:11;2.40;99.90
19781;DHT22;10050;55.492;13.506;2022-10-20T05:30:37;2.40;99.90
19781;DHT22;10050;55.492;13.506;2022-10-20T05:33:03;2.40;99.90
19781;DHT22;10050;55.492;13.506;2022-10-20T05:35:29;2.40;99.90
19781;DHT22;10050;55.492;13.506;2022-10-20T05:37:55;2.40;99.90
19781;DHT22;10050;55.492;13.506;2022-10-20T05:40:21;2.40;99.90
19781;DHT22;10050;55.492;13.506;2022-10-20T05:42:47;2.30;99.90
19781;DHT22;10050;55.492;13.506;2022-10-20T05:45:13;2.30;99.90
19781;DHT22;10050;55.492;13.506;2022-10-20T05:47:39;2.40;99.90
19781;DHT22;10050;55.492;13.506;2022-10-20T05:50:05;2.40;99.90
19781;DHT22;10050;55.492;13.506;2022-10-20T05:52:31;2.40;99.90
19781;DHT22;10050;55.492;13.506;2022-10-20T05:54:58;2.40;99.90
19781;DHT22;10050;55.492;13.506;2022-10-20T05:57:24;2.40;99.90
19781;DHT22;10050;55.492;13.506;2022-10-20T05:59:50;2.40;99.90
19781;DHT22;10050;55.492;13.506;2022-10-20T06:02:15;2.40;99.90
19781;DHT22;10050;55.492;13.506;2022-10-20T06:04:41;2.50;99.90
19781;DHT22;10050;55.492;13.506;2022-10-20T06:07:07;2.50;99.90
19781;DHT22;10050;55.492;13.506;2022-10-20T06:09:36;2.70;99.90
19781;DHT22;10050;55.492;13.506;2022-10-20T06:12:03;2.80;99.90
19781;DHT22;10050;55.492;13.506;2022-10-20T06:14:29;2.80;99.90
19781;DHT22;10050;55.492;13.506;2022-10-20T06:16:55;2.90;99.90
19781;DHT22;10050;55.492;13.506;2022-10-20T06:19:22;2.90;99.90
19781;DHT22;10050;55.492;13.506;2022-10-20T06:21:48;3.00;99.90
19781;DHT22;10050;55.492;13.506;2022-10-20T06:24:14;3.00;99.90
19781;DHT22;10050;55.492;13.506;2022-10-20T06:26:42;3.00;99.90
19781;DHT22;10050;55.492;13.506;2022-10-20T06:29:10;3.00;99.90
19781;DHT22;10050;55.492;13.506;2022-10-20T06:31:42;3.00;99.90
19781;DHT22;10050;55.492;13.506;2022-10-20T06:34:12;3.20;99.90
19781;DHT22;10050;55.492;13.506;2022-10-20T06:36:38;3.30;99.90
19781;DHT22;10050;55.492;13.506;2022-10-20T06:39:06;3.50;99.90
19781;DHT22;10050;55.492;13.506;2022-10-20T06:41:33;3.70;99.90
19781;DHT22;10050;55.492;13.506;2022-10-20T06:43:58;3.90;99.90
19781;DHT22;10050;55.492;13.506;2022-10-20T06:46:30;4.10;99.90
19781;DHT22;10050;55.492;13.506;2022-10-20T06:48:56;4.30;99.90
19781;DHT22;10050;55.492;13.506;2022-10-20T06:51:23;4.50;99.90
19781;DHT22;10050;55.492;13.506;2022-10-20T06:53:50;4.70;99.90
19781;DHT22;10050;55.492;13.506;2022-10-20T06:56:20;4.90;99.90
19781;DHT22;10050;55.492;13.506;2022-10-20T06:58:47;5.10;99.90
19781;DHT22;10050;55.492;13.506;2022-10-20T07:01:14;5.10;99.90
19781;DHT22;10050;55.492;13.506;2022-10-20T07:03:43;5.20;99.90
19781;DHT22;10050;55.492;13.506;2022-10-20T07:06:13;5.30;99.90
19781;DHT22;10050;55.492;13.506;2022-10-20T07:08:39;5.30;99.90
19781;DHT22;10050;55.492;13.506;2022-10-20T07:11:07;5.30;99.90
19781;DHT22;10050;55.492;13.506;2022-10-20T07:13:34;5.30;99.90
19781;DHT22;10050;55.492;13.506;2022-10-20T07:16:00;5.40;99.90
19781;DHT22;10050;55.492;13.506;2022-10-20T07:18:27;5.50;99.90
19781;DHT22;10050;55.492;13.506;2022-10-20T07:21:02;5.60;99.90
19781;DHT22;10050;55.492;13.506;2022-10-20T07:23:29;5.70;99.90
19781;DHT22;10050;55.492;13.506;2022-10-20T07:26:02;6.10;99.90
19781;DHT22;10050;55.492;13.506;2022-10-20T07:28:28;6.70;99.90
19781;DHT22;10050;55.492;13.506;2022-10-20T07:30:53;6.80;99.90
19781;DHT22;10050;55.492;13.506;2022-10-20T07:33:19;6.80;99.90
19781;DHT22;10050;55.492;13.506;2022-10-20T07:35:45;6.70;99.90
19781;DHT22;10050;55.492;13.506;2022-10-20T07:38:11;6.70;99.90
19781;DHT22;10050;55.492;13.506;2022-10-20T07:40:36;6.60;99.90
19781;DHT22;10050;55.492;13.506;2022-10-20T07:43:02;8.30;99.90
19781;DHT22;10050;55.492;13.506;2022-10-20T07:45:28;11.60;99.90
19781;DHT22;10050;55.492;13.506;2022-10-20T07:47:53;14.90;99.90
19781;DHT22;10050;55.492;13.506;2022-10-20T07:50:19;16.40;99.90
19781;DHT22;10050;55.492;13.506;2022-10-20T07:52:49;15.40;99.90
19781;DHT22;10050;55.492;13.506;2022-10-20T07:55:15;13.80;99.90
19781;DHT22;10050;55.492;13.506;2022-10-20T07:57:41;12.70;99.90
19781;DHT22;10050;55.492;13.506;2022-10-20T08:00:07;12.50;99.90
19781;DHT22;10050;55.492;13.506;2022-10-20T08:02:32;13.10;99.90
19781;DHT22;10050;55.492;13.506;2022-10-20T08:04:58;12.60;99.90
19781;DHT22;10050;55.492;13.506;2022-10-20T08:07:24;13.10;99.90
19781;DHT22;10050;55.492;13.506;2022-10-20T08:09:50;13.60;99.90
19781;DHT22;10050;55.492;13.506;2022-10-20T08:12:15;13.20;99.90
19781;DHT22;10050;55.492;13.506;2022-10-20T08:14:41;12.60;99.90
19781;DHT22;10050;55.492;13.506;2022-10-20T08:17:09;12.90;99.90
19781;DHT22;10050;55.492;13.506;2022-10-20T08:19:34;14.60;99.90
19781;DHT22;10050;55.492;13.506;2022-10-20T08:22:00;15.00;99.90
19781;DHT22;10050;55.492;13.506;2022-10-20T08:24:25;14.60;99.90
19781;DHT22;10050;55.492;13.506;2022-10-20T08:26:51;14.10;99.90
19781;DHT22;10050;55.492;13.506;2022-10-20T08:29:16;13.50;99.90
19781;DHT22;10050;55.492;13.506;2022-10-20T08:31:43;12.80;99.90
19781;DHT22;10050;55.492;13.506;2022-10-20T08:34:09;12.30;99.90
19781;DHT22;10050;55.492;13.506;2022-10-20T08:36:35;12.00;99.90
19781;DHT22;10050;55.492;13.506;2022-10-20T08:39:02;11.60;99.90
19781;DHT22;10050;55.492;13.506;2022-10-20T08:41:31;11.90;99.90
19781;DHT22;10050;55.492;13.506;2022-10-20T08:43:59;12.60;99.90
19781;DHT22;10050;55.492;13.506;2022-10-20T08:46:30;12.60;99.90
19781;DHT22;10050;55.492;13.506;2022-10-20T08:48:56;12.90;99.90
19781;DHT22;10050;55.492;13.506;2022-10-20T08:51:30;13.40;99.90
19781;DHT22;10050;55.492;13.506;2022-10-20T08:53:58;13.30;99.90
19781;DHT22;10050;55.492;13.506;2022-10-20T08:56:27;13.20;99.90
19781;DHT22;10050;55.492;13.506;2022-10-20T08:58:53;13.50;99.90
19781;DHT22;10050;55.492;13.506;2022-10-20T09:01:24;14.80;99.90
19781;DHT22;10050;55.492;13.506;2022-10-20T09:03:56;15.40;99.90
19781;DHT22;10050;55.492;13.506;2022-10-20T09:06:23;14.40;99.90
19781;DHT22;10050;55.492;13.506;2022-10-20T09:08:49;13.50;99.90
19781;DHT22;10050;55.492;13.506;2022-10-20T09:11:19;13.10;99.90
19781;DHT22;10050;55.492;13.506;2022-10-20T09:13:45;13.50;99.90
19781;DHT22;10050;55.492;13.506;2022-10-20T09:16:28;13.80;99.90
19781;DHT22;10050;55.492;13.506;2022-10-20T09:18:59;14.10;99.90
19781;DHT22;10050;55.492;13.506;2022-10-20T09:21:25;14.60;99.90
19781;DHT22;10050;55.492;13.506;2022-10-20T09:23:54;15.00;99.90
19781;DHT22;10050;55.492;13.506;2022-10-20T09:26:44;15.40;99.90
19781;DHT22;10050;55.492;13.506;2022-10-20T09:29:17;15.30;99.90
19781;DHT22;10050;55.492;13.506;2022-10-20T09:31:50;14.80;99.90
19781;DHT22;10050;55.492;13.506;2022-10-20T09:34:25;14.30;99.90
19781;DHT22;10050;55.492;13.506;2022-10-20T09:37:17;14.10;99.90
19781;DHT22;10050;55.492;13.506;2022-10-20T09:39:51;14.00;99.90
19781;DHT22;10050;55.492;13.506;2022-10-20T09:42:24;14.70;99.90
19781;DHT22;10050;55.492;13.506;2022-10-20T09:44:55;14.60;99.90
19781;DHT22;10050;55.492;13.506;2022-10-20T09:47:22;15.00;99.90
19781;DHT22;10050;55.492;13.506;2022-10-20T09:49:56;15.70;99.90
19781;DHT22;10050;55.492;13.506;2022-10-20T09:52:26;15.80;99.90
19781;DHT22;10050;55.492;13.506;2022-10-20T09:55:00;15.80;99.90
19781;DHT22;10050;55.492;13.506;2022-10-20T09:57:26;15.80;99.90
19781;DHT22;10050;55.492;13.506;2022-10-20T09:59:54;15.70;99.90
19781;DHT22;10050;55.492;13.506;2022-10-20T10:04:48;15.00;99.90
19781;DHT22;10050;55.492;13.506;2022-10-20T10:09:57;14.90;99.90
19781;DHT22;10050;55.492;13.506;2022-10-20T10:12:24;14.80;99.90
19781;DHT22;10050;55.492;13.506;2022-10-20T10:15:44;15.20;99.90
19781;DHT22;10050;55.492;13.506;2022-10-20T10:17:51;15.20;99.90
19781;DHT22;10050;55.492;13.506;2022-10-20T10:22:42;14.80;99.90
19781;DHT22;10050;55.492;13.506;2022-10-20T10:25:19;14.80;99.90
19781;DHT22;10050;55.492;13.506;2022-10-20T10:28:00;14.70;99.90
19781;DHT22;10050;55.492;13.506;2022-10-20T10:30:36;14.30;99.90
19781;DHT22;10050;55.492;13.506;2022-10-20T10:33:25;14.10;99.90
19781;DHT22;10050;55.492;13.506;2022-10-20T10:35:51;13.70;99.90
19781;DHT22;10050;55.492;13.506;2022-10-20T10:38:17;13.90;99.90
19781;DHT22;10050;55.492;13.506;2022-10-20T10:43:27;13.20;99.90
19781;DHT22;10050;55.492;13.506;2022-10-20T10:46:18;12.80;99.90
19781;DHT22;10050;55.492;13.506;2022-10-20T10:49:18;12.90;99.90
19781;DHT22;10050;55.492;13.506;2022-10-20T11:00:54;13.80;99.90
19781;DHT22;10050;55.492;13.506;2022-10-20T11:09:19;13.80;99.90
19781;DHT22;10050;55.492;13.506;2022-10-20T11:12:10;13.60;99.90
19781;DHT22;10050;55.492;13.506;2022-10-20T11:15:23;13.70;99.90
19781;DHT22;10050;55.492;13.506;2022-10-20T11:18:39;13.30;99.90
19781;DHT22;10050;55.492;13.506;2022-10-20T11:26:29;13.50;99.90
19781;DHT22;10050;55.492;13.506;2022-10-20T11:28:57;13.20;99.90
19781;DHT22;10050;55.492;13.506;2022-10-20T11:31:48;12.90;99.90
19781;DHT22;10050;55.492;13.506;2022-10-20T11:34:29;13.00;99.90
19781;DHT22;10050;55.492;13.506;2022-10-20T11:37:23;12.90;99.90
19781;DHT22;10050;55.492;13.506;2022-10-20T11:42:27;12.70;99.90
19781;DHT22;10050;55.492;13.506;2022-10-20T11:44:55;12.50;99.90
19781;DHT22;10050;55.492;13.506;2022-10-20T11:47:30;12.40;99.90
19781;DHT22;10050;55.492;13.506;2022-10-20T11:49:58;12.40;99.90
19781;DHT22;10050;55.492;13.506;2022-10-20T11:57:52;12.50;99.90
19781;DHT22;10050;55.492;13.506;2022-10-20T12:05:34;12.20;99.90
19781;DHT22;10050;55.492;13.506;2022-10-20T12:08:15;12.20;99.90
19781;DHT22;10050;55.492;13.506;2022-10-20T12:13:56;12.50;99.90
19781;DHT22;10050;55.492;13.506;2022-10-20T12:19:34;12.60;99.90
19781;DHT22;10050;55.492;13.506;2022-10-20T12:27:24;12.40;99.90
19781;DHT22;10050;55.492;13.506;2022-10-20T12:35:01;12.00;99.90
19781;DHT22;10050;55.492;13.506;2022-10-20T12:37:29;11.90;99.90
19781;DHT22;10050;55.492;13.506;2022-10-20T12:42:35;11.70;99.90
19781;DHT22;10050;55.492;13.506;2022-10-20T12:45:05;11.80;99.90
19781;DHT22;10050;55.492;13.506;2022-10-20T12:47:34;11.80;99.90
19781;DHT22;10050;55.492;13.506;2022-10-20T12:50:05;11.80;99.90
19781;DHT22;10050;55.492;13.506;2022-10-20T12:52:35;11.80;99.90
19781;DHT22;10050;55.492;13.506;2022-10-20T12:57:36;11.90;99.90
19781;DHT22;10050;55.492;13.506;2022-10-20T13:02:54;11.90;99.90
19781;DHT22;10050;55.492;13.506;2022-10-20T13:05:40;11.80;99.90
19781;DHT22;10050;55.492;13.506;2022-10-20T13:10:44;11.90;99.90
19781;DHT22;10050;55.492;13.506;2022-10-20T13:23:16;11.50;99.90
19781;DHT22;10050;55.492;13.506;2022-10-20T13:35:53;11.10;99.90
19781;DHT22;10050;55.492;13.506;2022-10-20T13:38:30;11.10;99.90
19781;DHT22;10050;55.492;13.506;2022-10-20T13:41:15;11.10;99.90
19781;DHT22;10050;55.492;13.506;2022-10-20T13:44:01;11.00;99.90
19781;DHT22;10050;55.492;13.506;2022-10-20T13:52:03;11.20;99.90
19781;DHT22;10050;55.492;13.506;2022-10-20T13:54:34;11.30;99.90
19781;DHT22;10050;55.492;13.506;2022-10-20T13:57:01;11.20;99.90
19781;DHT22;10050;55.492;13.506;2022-10-20T13:59:29;11.10;99.90
19781;DHT22;10050;55.492;13.506;2022-10-20T14:02:23;11.00;99.90
19781;DHT22;10050;55.492;13.506;2022-10-20T14:05:01;10.80;99.90
19781;DHT22;10050;55.492;13.506;2022-10-20T14:07:40;10.90;99.90
19781;DHT22;10050;55.492;13.506;2022-10-20T14:10:18;10.90;99.90
19781;DHT22;10050;55.492;13.506;2022-10-20T14:12:44;10.90;99.90
19781;DHT22;10050;55.492;13.506;2022-10-20T14:15:12;10.90;99.90
19781;DHT22;10050;55.492;13.506;2022-10-20T14:17:38;10.80;99.90
19781;DHT22;10050;55.492;13.506;2022-10-20T14:20:22;10.80;99.90
19781;DHT22;10050;55.492;13.506;2022-10-20T14:22:48;10.80;99.90
19781;DHT22;10050;55.492;13.506;2022-10-20T14:25:15;10.80;99.90
19781;DHT22;10050;55.492;13.506;2022-10-20T14:27:42;10.70;99.90
19781;DHT22;10050;55.492;13.506;2022-10-20T14:30:14;10.70;99.90
19781;DHT22;10050;55.492;13.506;2022-10-20T14:32:42;10.50;99.90
19781;DHT22;10050;55.492;13.506;2022-10-20T14:38:02;10.40;99.90
19781;DHT22;10050;55.492;13.506;2022-10-20T14:40:31;10.30;99.90
19781;DHT22;10050;55.492;13.506;2022-10-20T14:43:16;10.20;99.90
19781;DHT22;10050;55.492;13.506;2022-10-20T14:46:13;10.20;99.90
19781;DHT22;10050;55.492;13.506;2022-10-20T14:48:48;10.10;99.90
19781;DHT22;10050;55.492;13.506;2022-10-20T14:51:27;10.10;99.90
19781;DHT22;10050;55.492;13.506;2022-10-20T14:59:30;9.90;99.90
19781;DHT22;10050;55.492;13.506;2022-10-20T15:02:09;9.80;99.90
19781;DHT22;10050;55.492;13.506;2022-10-20T15:04:46;9.80;99.90
19781;DHT22;10050;55.492;13.506;2022-10-20T15:09:51;9.80;99.90
19781;DHT22;10050;55.492;13.506;2022-10-20T15:12:26;9.80;99.90
19781;DHT22;10050;55.492;13.506;2022-10-20T15:15:03;9.70;99.90
19781;DHT22;10050;55.492;13.506;2022-10-20T15:17:43;9.70;99.90
19781;DHT22;10050;55.492;13.506;2022-10-20T15:22:59;9.60;99.90
19781;DHT22;10050;55.492;13.506;2022-10-20T15:25:27;9.60;99.90
19781;DHT22;10050;55.492;13.506;2022-10-20T15:27:57;9.50;99.90
19781;DHT22;10050;55.492;13.506;2022-10-20T15:30:24;9.50;99.90
19781;DHT22;10050;55.492;13.506;2022-10-20T15:32:50;9.50;99.90
19781;DHT22;10050;55.492;13.506;2022-10-20T15:35:19;9.50;99.90
19781;DHT22;10050;55.492;13.506;2022-10-20T15:37:51;9.50;99.90
19781;DHT22;10050;55.492;13.506;2022-10-20T15:40:17;9.40;99.90
19781;DHT22;10050;55.492;13.506;2022-10-20T15:42:43;9.30;99.90
19781;DHT22;10050;55.492;13.506;2022-10-20T15:45:21;9.40;99.90
19781;DHT22;10050;55.492;13.506;2022-10-20T15:47:47;9.40;99.90
19781;DHT22;10050;55.492;13.506;2022-10-20T15:50:13;9.20;99.90
19781;DHT22;10050;55.492;13.506;2022-10-20T15:52:39;9.30;99.90
19781;DHT22;10050;55.492;13.506;2022-10-20T15:55:28;9.20;99.90
19781;DHT22;10050;55.492;13.506;2022-10-20T15:57:55;9.10;99.90
19781;DHT22;10050;55.492;13.506;2022-10-20T16:00:22;9.10;99.90
19781;DHT22;10050;55.492;13.506;2022-10-20T16:02:48;9.00;99.90
19781;DHT22;10050;55.492;13.506;2022-10-20T16:05:16;8.90;99.90
19781;DHT22;10050;55.492;13.506;2022-10-20T16:07:42;8.90;99.90
19781;DHT22;10050;55.492;13.506;2022-10-20T16:10:09;8.90;99.90
19781;DHT22;10050;55.492;13.506;2022-10-20T16:12:35;8.90;99.90
19781;DHT22;10050;55.492;13.506;2022-10-20T16:15:01;8.90;99.90
19781;DHT22;10050;55.492;13.506;2022-10-20T16:17:27;8.90;99.90
19781;DHT22;10050;55.492;13.506;2022-10-20T16:19:53;8.90;99.90
19781;DHT22;10050;55.492;13.506;2022-10-20T16:22:18;8.90;99.90
19781;DHT22;10050;55.492;13.506;2022-10-20T16:24:45;8.90;99.90
19781;DHT22;10050;55.492;13.506;2022-10-20T16:27:11;8.90;99.90
19781;DHT22;10050;55.492;13.506;2022-10-20T16:29:36;8.90;99.90
19781;DHT22;10050;55.492;13.506;2022-10-20T16:32:02;8.90;99.90
19781;DHT22;10050;55.492;13.506;2022-10-20T16:34:28;8.90;99.90
19781;DHT22;10050;55.492;13.506;2022-10-20T16:36:54;8.80;99.90
19781;DHT22;10050;55.492;13.506;2022-10-20T16:39:19;8.80;99.90
19781;DHT22;10050;55.492;13.506;2022-10-20T16:41:45;8.80;99.90
19781;DHT22;10050;55.492;13.506;2022-10-20T16:44:11;8.80;99.90
19781;DHT22;10050;55.492;13.506;2022-10-20T16:46:37;8.70;99.90
19781;DHT22;10050;55.492;13.506;2022-10-20T16:49:03;8.80;99.90
19781;DHT22;10050;55.492;13.506;2022-10-20T16:51:29;8.80;99.90
19781;DHT22;10050;55.492;13.506;2022-10-20T16:53:56;8.80;99.90
19781;DHT22;10050;55.492;13.506;2022-10-20T16:56:22;8.80;99.90
19781;DHT22;10050;55.492;13.506;2022-10-20T16:58:48;8.80;99.90
19781;DHT22;10050;55.492;13.506;2022-10-20T17:01:15;8.80;99.90
19781;DHT22;10050;55.492;13.506;2022-10-20T17:03:43;8.80;99.90
19781;DHT22;10050;55.492;13.506;2022-10-20T17:06:10;8.80;99.90
19781;DHT22;10050;55.492;13.506;2022-10-20T17:08:36;8.70;99.90
19781;DHT22;10050;55.492;13.506;2022-10-20T17:11:05;8.70;99.90
19781;DHT22;10050;55.492;13.506;2022-10-20T17:13:31;8.80;99.90
19781;DHT22;10050;55.492;13.506;2022-10-20T17:16:04;8.80;99.90
19781;DHT22;10050;55.492;13.506;2022-10-20T17:18:29;8.80;99.90
19781;DHT22;10050;55.492;13.506;2022-10-20T17:20:55;8.90;99.90
19781;DHT22;10050;55.492;13.506;2022-10-20T17:23:22;8.90;99.90
19781;DHT22;10050;55.492;13.506;2022-10-20T17:25:48;9.00;99.90
19781;DHT22;10050;55.492;13.506;2022-10-20T17:28:14;9.00;99.90
19781;DHT22;10050;55.492;13.506;2022-10-20T17:30:41;9.00;99.90
19781;DHT22;10050;55.492;13.506;2022-10-20T17:33:07;9.00;99.90
19781;DHT22;10050;55.492;13.506;2022-10-20T17:35:33;9.00;99.90
19781;DHT22;10050;55.492;13.506;2022-10-20T17:37:59;9.00;99.90
19781;DHT22;10050;55.492;13.506;2022-10-20T17:40:24;9.10;99.90
19781;DHT22;10050;55.492;13.506;2022-10-20T17:42:50;9.00;99.90
19781;DHT22;10050;55.492;13.506;2022-10-20T17:45:16;9.00;99.90
19781;DHT22;10050;55.492;13.506;2022-10-20T17:47:41;9.10;99.90
19781;DHT22;10050;55.492;13.506;2022-10-20T17:50:08;9.10;99.90
19781;DHT22;10050;55.492;13.506;2022-10-20T17:52:34;9.10;99.90
19781;DHT22;10050;55.492;13.506;2022-10-20T17:54:59;9.20;99.90
19781;DHT22;10050;55.492;13.506;2022-10-20T17:57:25;9.20;99.90
19781;DHT22;10050;55.492;13.506;2022-10-20T17:59:53;9.20;99.90